Mitchell, SD

6:37 PM CDT on September 21, 2014 (GMT -0500)
Mitchell Municipal | Change Station
CLOSE
Current Station
Airport
Location: Mitchell,
Elevation: 1302 ft
Nearby Weather Stations

Elev 1302 ft 43.77 °N, 98.04 °W | Updated 44 minutes ago

Clear
Clear
71 °F
Feels Like 71 °F
N
9
Wind Variable Wind from NNW

Today
High -- | Low -- °F
--% Chance of Precip.
Yesterday
High -- | Low -- °F
Precip. -- in
7:18 AM 7:31 PM
Waning Crescent, 5% visible
Pressure 30.24 in
Visibility 10.0 miles
Clouds Clear
Dew Point 44 °F
Humidity 38%
Rainfall 0.00 in
Snow Depth 0 in
UV 1 out of 12
Pollen 5.50 out of 12
Air Quality Not available.
Flu Activity Not available.
METAR KMHE 212253Z AUTO 33008KT 10SM CLR 22/07 A3024 RMK AO2 SLP240 T02170067 $

More Conditions Fewer Conditions

Pressure 30.24 in
Visibility 10.0 miles
Clouds Clear
Dew Point 44 °F
Humidity 38%
Rainfall 0.00 in
Snow Depth 0 in
UV 1 out of 12
Pollen 5.50 out of 12
Air Quality Not available.
Flu Activity Not available.
METAR KMHE 212253Z AUTO 33008KT 10SM CLR 22/07 A3024 RMK AO2 SLP240 T02170067 $

More Conditions Fewer Conditions

10-Day Weather Forecast

Almanac

Astronomy

Sep. 21, 2014 Rise Set
Actual Time 7:18 AM CDT 7:31 PM CDT
Civil Twilight 6:49 AM CDT 7:59 PM CDT
Nautical Twilight 6:15 AM CDT 8:33 PM CDT
Astronomical Twilight 5:41 AM CDT 9:08 PM CDT
Moon 4:49 AM CDT 6:10 PM CDT
Length of Visible Light 13h 10m
Length of Day
12h 13m
Tomorrow will be 2m 58s shorter.
Waning Crescent, 5% of the Moon is Illuminated
Today
Waning Crescent
Sep 24
New
Oct 1
First Quarter
Oct 8
Full
Oct 15
Last Quarter

Today's Extremes

State Highs State Lows

Community

WunderPhotos

Upload Photos

1,755,292 photos uploaded!

WunderBlogs® & News

Nearby

Snow Depth

Station Depth Elevation
Blind Park 0 in 6890 ft

Earthquake Activity

City Distance Mag. Time & Date
No recent earthquake activity has been reported nearby.
Minimum magnitude displayed is 2.5.

Coastal Water Temperatures

Place Temperature
No Stations Reporting

Nearby Weather Stations